sensor_id;sensor_type;location;lat;lon;timestamp;pressure;altitude;pressure_sealevel;temperature;humidity
40073;BME280;25774;52.256;9.356;2022-12-29T00:01:31;99381.34;;;9.13;100.00
40073;BME280;25774;52.256;9.356;2022-12-29T00:03:57;99372.91;;;9.08;100.00
40073;BME280;25774;52.256;9.356;2022-12-29T00:06:23;99366.84;;;9.20;100.00
40073;BME280;25774;52.256;9.356;2022-12-29T00:08:48;99369.34;;;9.22;100.00
40073;BME280;25774;52.256;9.356;2022-12-29T00:11:16;99342.00;;;9.24;100.00
40073;BME280;25774;52.256;9.356;2022-12-29T00:13:42;99346.53;;;9.22;100.00
40073;BME280;25774;52.256;9.356;2022-12-29T00:16:27;99329.56;;;9.26;100.00
40073;BME280;25774;52.256;9.356;2022-12-29T00:18:52;99335.91;;;9.37;100.00
40073;BME280;25774;52.256;9.356;2022-12-29T00:21:20;99329.88;;;9.35;100.00
40073;BME280;25774;52.256;9.356;2022-12-29T00:24:05;99324.53;;;9.49;100.00
40073;BME280;25774;52.256;9.356;2022-12-29T00:26:58;99324.34;;;9.52;100.00
40073;BME280;25774;52.256;9.356;2022-12-29T00:29:51;99312.44;;;9.46;100.00
40073;BME280;25774;52.256;9.356;2022-12-29T00:32:36;99312.00;;;9.52;100.00
40073;BME280;25774;52.256;9.356;2022-12-29T00:37:50;99304.66;;;9.58;100.00
40073;BME280;25774;52.256;9.356;2022-12-29T00:40:34;99301.03;;;9.84;100.00
40073;BME280;25774;52.256;9.356;2022-12-29T00:43:18;99270.03;;;9.88;100.00
40073;BME280;25774;52.256;9.356;2022-12-29T00:46:02;99276.22;;;10.12;100.00
40073;BME280;25774;52.256;9.356;2022-12-29T00:48:28;99252.53;;;9.99;100.00
40073;BME280;25774;52.256;9.356;2022-12-29T00:51:12;99255.84;;;10.14;100.00
40073;BME280;25774;52.256;9.356;2022-12-29T00:53:37;99241.94;;;10.12;100.00
40073;BME280;25774;52.256;9.356;2022-12-29T00:56:04;99234.84;;;10.25;100.00
40073;BME280;25774;52.256;9.356;2022-12-29T00:58:31;99223.50;;;10.12;100.00
40073;BME280;25774;52.256;9.356;2022-12-29T01:01:07;99207.09;;;10.20;100.00
40073;BME280;25774;52.256;9.356;2022-12-29T01:03:36;99208.28;;;10.16;100.00
40073;BME280;25774;52.256;9.356;2022-12-29T01:06:08;99208.78;;;10.21;100.00
40073;BME280;25774;52.256;9.356;2022-12-29T01:08:34;99189.00;;;10.15;100.00
40073;BME280;25774;52.256;9.356;2022-12-29T01:11:03;99179.56;;;10.24;100.00
40073;BME280;25774;52.256;9.356;2022-12-29T01:13:30;99187.13;;;10.41;100.00
40073;BME280;25774;52.256;9.356;2022-12-29T01:15:55;99179.91;;;10.19;100.00
40073;BME280;25774;52.256;9.356;2022-12-29T01:18:22;99175.00;;;10.39;100.00
40073;BME280;25774;52.256;9.356;2022-12-29T01:20:47;99168.75;;;10.40;100.00
40073;BME280;25774;52.256;9.356;2022-12-29T01:23:13;99171.78;;;10.22;100.00
40073;BME280;25774;52.256;9.356;2022-12-29T01:25:38;99189.97;;;10.38;100.00
40073;BME280;25774;52.256;9.356;2022-12-29T01:28:03;99189.16;;;10.49;100.00
40073;BME280;25774;52.256;9.356;2022-12-29T01:30:29;99171.56;;;10.25;100.00
40073;BME280;25774;52.256;9.356;2022-12-29T01:32:54;99162.88;;;10.36;100.00
40073;BME280;25774;52.256;9.356;2022-12-29T01:35:19;99152.72;;;10.19;100.00
40073;BME280;25774;52.256;9.356;2022-12-29T01:37:45;99148.28;;;10.19;100.00
40073;BME280;25774;52.256;9.356;2022-12-29T01:40:11;99136.06;;;10.18;100.00
40073;BME280;25774;52.256;9.356;2022-12-29T01:42:37;99152.19;;;10.14;100.00
40073;BME280;25774;52.256;9.356;2022-12-29T01:45:10;99156.25;;;10.07;100.00
40073;BME280;25774;52.256;9.356;2022-12-29T01:47:43;99154.72;;;10.15;100.00
40073;BME280;25774;52.256;9.356;2022-12-29T01:50:15;99146.09;;;10.13;100.00
40073;BME280;25774;52.256;9.356;2022-12-29T01:52:52;99127.13;;;10.08;100.00
40073;BME280;25774;52.256;9.356;2022-12-29T01:55:20;99131.06;;;10.02;100.00
40073;BME280;25774;52.256;9.356;2022-12-29T01:57:48;99123.78;;;10.06;100.00
40073;BME280;25774;52.256;9.356;2022-12-29T02:00:15;99139.47;;;10.08;100.00
40073;BME280;25774;52.256;9.356;2022-12-29T02:02:45;99118.28;;;10.09;100.00
40073;BME280;25774;52.256;9.356;2022-12-29T02:05:21;99129.88;;;10.07;100.00
40073;BME280;25774;52.256;9.356;2022-12-29T02:07:48;99119.03;;;10.22;100.00
40073;BME280;25774;52.256;9.356;2022-12-29T02:10:15;99114.44;;;10.13;100.00
40073;BME280;25774;52.256;9.356;2022-12-29T02:12:40;99095.63;;;10.07;100.00
40073;BME280;25774;52.256;9.356;2022-12-29T02:15:06;99088.09;;;10.13;100.00
40073;BME280;25774;52.256;9.356;2022-12-29T02:20:13;99100.66;;;10.10;100.00
40073;BME280;25774;52.256;9.356;2022-12-29T02:25:57;99102.94;;;10.38;100.00
40073;BME280;25774;52.256;9.356;2022-12-29T02:28:58;99084.03;;;10.20;100.00
40073;BME280;25774;52.256;9.356;2022-12-29T02:31:40;99096.97;;;10.12;100.00
40073;BME280;25774;52.256;9.356;2022-12-29T02:36:44;99111.97;;;10.23;100.00
40073;BME280;25774;52.256;9.356;2022-12-29T02:39:19;99101.22;;;10.26;100.00
40073;BME280;25774;52.256;9.356;2022-12-29T02:47:16;99107.94;;;10.06;100.00
40073;BME280;25774;52.256;9.356;2022-12-29T02:52:40;99110.34;;;9.85;100.00
40073;BME280;25774;52.256;9.356;2022-12-29T02:55:11;99139.47;;;9.84;100.00
40073;BME280;25774;52.256;9.356;2022-12-29T02:57:37;99156.47;;;9.80;100.00
40073;BME280;25774;52.256;9.356;2022-12-29T03:00:16;99168.09;;;9.88;100.00
40073;BME280;25774;52.256;9.356;2022-12-29T03:10:54;99155.41;;;9.69;100.00
40073;BME280;25774;52.256;9.356;2022-12-29T03:13:36;99147.28;;;9.72;100.00
40073;BME280;25774;52.256;9.356;2022-12-29T03:16:29;99146.59;;;9.70;100.00
40073;BME280;25774;52.256;9.356;2022-12-29T03:19:26;99144.06;;;9.93;100.00
40073;BME280;25774;52.256;9.356;2022-12-29T03:22:03;99122.53;;;9.75;100.00
40073;BME280;25774;52.256;9.356;2022-12-29T03:24:50;99131.47;;;9.72;100.00
40073;BME280;25774;52.256;9.356;2022-12-29T03:27:25;99137.88;;;9.81;100.00
40073;BME280;25774;52.256;9.356;2022-12-29T03:29:57;99133.84;;;9.88;100.00
40073;BME280;25774;52.256;9.356;2022-12-29T03:32:32;99120.59;;;9.90;100.00
40073;BME280;25774;52.256;9.356;2022-12-29T03:35:00;99120.34;;;9.93;100.00
40073;BME280;25774;52.256;9.356;2022-12-29T03:38:02;99116.09;;;10.03;100.00
40073;BME280;25774;52.256;9.356;2022-12-29T03:40:31;99105.19;;;10.08;100.00
40073;BME280;25774;52.256;9.356;2022-12-29T03:42:58;99095.09;;;10.01;100.00
40073;BME280;25774;52.256;9.356;2022-12-29T03:45:24;99090.78;;;10.00;100.00
40073;BME280;25774;52.256;9.356;2022-12-29T03:47:52;99092.00;;;10.08;100.00
40073;BME280;25774;52.256;9.356;2022-12-29T03:50:18;99118.22;;;10.22;100.00
40073;BME280;25774;52.256;9.356;2022-12-29T03:52:43;99085.41;;;10.26;100.00
40073;BME280;25774;52.256;9.356;2022-12-29T03:55:09;99075.41;;;10.18;100.00
40073;BME280;25774;52.256;9.356;2022-12-29T03:57:34;99072.66;;;10.20;100.00
40073;BME280;25774;52.256;9.356;2022-12-29T04:00:00;99085.59;;;10.47;100.00
40073;BME280;25774;52.256;9.356;2022-12-29T04:02:25;99074.03;;;10.37;100.00
40073;BME280;25774;52.256;9.356;2022-12-29T04:04:51;99058.84;;;10.40;100.00
40073;BME280;25774;52.256;9.356;2022-12-29T04:07:16;99055.47;;;10.38;100.00
40073;BME280;25774;52.256;9.356;2022-12-29T04:09:42;99051.53;;;10.55;100.00
40073;BME280;25774;52.256;9.356;2022-12-29T04:12:07;99053.13;;;10.58;100.00
40073;BME280;25774;52.256;9.356;2022-12-29T04:14:32;99043.06;;;10.63;100.00
40073;BME280;25774;52.256;9.356;2022-12-29T04:16:58;99045.19;;;10.58;100.00
40073;BME280;25774;52.256;9.356;2022-12-29T04:19:23;99039.19;;;10.56;100.00
40073;BME280;25774;52.256;9.356;2022-12-29T04:21:48;99035.28;;;10.73;100.00
40073;BME280;25774;52.256;9.356;2022-12-29T04:24:14;99021.25;;;10.72;100.00
40073;BME280;25774;52.256;9.356;2022-12-29T04:26:40;99019.19;;;10.87;100.00
40073;BME280;25774;52.256;9.356;2022-12-29T04:29:05;99007.66;;;10.88;100.00
40073;BME280;25774;52.256;9.356;2022-12-29T04:31:31;99005.13;;;10.75;100.00
40073;BME280;25774;52.256;9.356;2022-12-29T04:33:56;98987.03;;;10.93;100.00
40073;BME280;25774;52.256;9.356;2022-12-29T04:36:23;98978.38;;;10.91;100.00
40073;BME280;25774;52.256;9.356;2022-12-29T04:38:48;98982.19;;;11.09;100.00
40073;BME280;25774;52.256;9.356;2022-12-29T04:41:13;98965.44;;;10.99;100.00
40073;BME280;25774;52.256;9.356;2022-12-29T04:43:39;98960.72;;;11.14;100.00
40073;BME280;25774;52.256;9.356;2022-12-29T04:46:04;98949.19;;;11.15;100.00
40073;BME280;25774;52.256;9.356;2022-12-29T04:48:30;98950.50;;;11.21;100.00
40073;BME280;25774;52.256;9.356;2022-12-29T04:50:55;98939.28;;;11.39;100.00
40073;BME280;25774;52.256;9.356;2022-12-29T04:53:20;98918.81;;;11.21;100.00
40073;BME280;25774;52.256;9.356;2022-12-29T04:55:49;98919.00;;;11.29;100.00
40073;BME280;25774;52.256;9.356;2022-12-29T04:58:15;98926.25;;;11.27;100.00
40073;BME280;25774;52.256;9.356;2022-12-29T05:00:40;98940.81;;;11.42;100.00
40073;BME280;25774;52.256;9.356;2022-12-29T05:03:05;98920.91;;;11.38;100.00
40073;BME280;25774;52.256;9.356;2022-12-29T05:05:31;98924.09;;;11.21;100.00
40073;BME280;25774;52.256;9.356;2022-12-29T05:07:56;98931.69;;;11.46;100.00
40073;BME280;25774;52.256;9.356;2022-12-29T05:10:21;98918.06;;;11.30;100.00
40073;BME280;25774;52.256;9.356;2022-12-29T05:12:46;98924.38;;;11.38;100.00
40073;BME280;25774;52.256;9.356;2022-12-29T05:15:13;98913.56;;;11.41;100.00
40073;BME280;25774;52.256;9.356;2022-12-29T05:17:38;98929.50;;;11.51;100.00
40073;BME280;25774;52.256;9.356;2022-12-29T05:20:05;98908.28;;;11.41;100.00
40073;BME280;25774;52.256;9.356;2022-12-29T05:22:30;98910.66;;;11.45;100.00
40073;BME280;25774;52.256;9.356;2022-12-29T05:24:58;98910.72;;;11.33;100.00
40073;BME280;25774;52.256;9.356;2022-12-29T05:27:23;98907.69;;;11.38;100.00
40073;BME280;25774;52.256;9.356;2022-12-29T05:29:49;98928.47;;;11.43;100.00
40073;BME280;25774;52.256;9.356;2022-12-29T05:32:14;98922.63;;;11.28;100.00
40073;BME280;25774;52.256;9.356;2022-12-29T05:34:40;98927.31;;;11.24;100.00
40073;BME280;25774;52.256;9.356;2022-12-29T05:37:06;98932.50;;;11.14;100.00
40073;BME280;25774;52.256;9.356;2022-12-29T05:39:31;98933.50;;;11.02;100.00
40073;BME280;25774;52.256;9.356;2022-12-29T05:41:57;98945.72;;;11.14;100.00
40073;BME280;25774;52.256;9.356;2022-12-29T05:44:22;98938.78;;;11.02;100.00
40073;BME280;25774;52.256;9.356;2022-12-29T05:46:48;98956.97;;;11.16;100.00
40073;BME280;25774;52.256;9.356;2022-12-29T05:49:13;98947.38;;;11.15;100.00
40073;BME280;25774;52.256;9.356;2022-12-29T05:51:38;98944.75;;;11.15;100.00
40073;BME280;25774;52.256;9.356;2022-12-29T05:54:04;98949.00;;;10.96;100.00
40073;BME280;25774;52.256;9.356;2022-12-29T05:56:29;98947.72;;;10.79;100.00
40073;BME280;25774;52.256;9.356;2022-12-29T05:58:54;98965.69;;;10.74;100.00
40073;BME280;25774;52.256;9.356;2022-12-29T06:01:20;98956.09;;;10.61;100.00
40073;BME280;25774;52.256;9.356;2022-12-29T06:03:45;98963.44;;;10.69;100.00
40073;BME280;25774;52.256;9.356;2022-12-29T06:06:10;98971.44;;;10.67;100.00
40073;BME280;25774;52.256;9.356;2022-12-29T06:08:36;98962.22;;;10.62;100.00
40073;BME280;25774;52.256;9.356;2022-12-29T06:11:01;98965.94;;;10.70;100.00
40073;BME280;25774;52.256;9.356;2022-12-29T06:13:26;98960.06;;;10.56;100.00
40073;BME280;25774;52.256;9.356;2022-12-29T06:15:52;98960.91;;;10.56;100.00
40073;BME280;25774;52.256;9.356;2022-12-29T06:18:18;98964.50;;;10.66;100.00
40073;BME280;25774;52.256;9.356;2022-12-29T06:20:43;98962.22;;;10.73;100.00
40073;BME280;25774;52.256;9.356;2022-12-29T06:23:09;98946.84;;;10.78;100.00
40073;BME280;25774;52.256;9.356;2022-12-29T06:25:34;98961.16;;;10.76;100.00
40073;BME280;25774;52.256;9.356;2022-12-29T06:28:01;98954.66;;;10.80;100.00
40073;BME280;25774;52.256;9.356;2022-12-29T06:30:27;98944.47;;;10.64;100.00
40073;BME280;25774;52.256;9.356;2022-12-29T06:32:52;98959.44;;;10.86;100.00
40073;BME280;25774;52.256;9.356;2022-12-29T06:35:20;98945.31;;;10.53;100.00
40073;BME280;25774;52.256;9.356;2022-12-29T06:37:47;98944.34;;;10.65;100.00
40073;BME280;25774;52.256;9.356;2022-12-29T06:40:13;98944.22;;;10.78;100.00
40073;BME280;25774;52.256;9.356;2022-12-29T06:42:39;98944.34;;;10.77;100.00
40073;BME280;25774;52.256;9.356;2022-12-29T06:45:04;98940.16;;;10.74;100.00
40073;BME280;25774;52.256;9.356;2022-12-29T06:47:30;98937.59;;;10.95;100.00
40073;BME280;25774;52.256;9.356;2022-12-29T06:49:55;98927.44;;;10.79;100.00
40073;BME280;25774;52.256;9.356;2022-12-29T06:52:20;98922.94;;;10.91;100.00
40073;BME280;25774;52.256;9.356;2022-12-29T06:54:46;98917.69;;;10.91;100.00
40073;BME280;25774;52.256;9.356;2022-12-29T06:57:11;98928.63;;;10.86;100.00
40073;BME280;25774;52.256;9.356;2022-12-29T06:59:37;98925.00;;;10.87;100.00
40073;BME280;25774;52.256;9.356;2022-12-29T07:02:02;98944.16;;;11.12;100.00
40073;BME280;25774;52.256;9.356;2022-12-29T07:04:28;98943.78;;;11.16;100.00
40073;BME280;25774;52.256;9.356;2022-12-29T07:06:54;98936.31;;;11.33;100.00
40073;BME280;25774;52.256;9.356;2022-12-29T07:09:20;98935.50;;;11.10;100.00
40073;BME280;25774;52.256;9.356;2022-12-29T07:11:45;98982.34;;;10.97;100.00
40073;BME280;25774;52.256;9.356;2022-12-29T07:14:11;99010.91;;;10.46;100.00
40073;BME280;25774;52.256;9.356;2022-12-29T07:16:37;99029.63;;;10.19;100.00
40073;BME280;25774;52.256;9.356;2022-12-29T07:19:02;99033.91;;;10.09;100.00
40073;BME280;25774;52.256;9.356;2022-12-29T07:21:28;99052.25;;;10.11;100.00
40073;BME280;25774;52.256;9.356;2022-12-29T07:23:54;99058.84;;;10.05;100.00
40073;BME280;25774;52.256;9.356;2022-12-29T07:26:19;99067.84;;;10.14;100.00
40073;BME280;25774;52.256;9.356;2022-12-29T07:28:44;99072.19;;;9.91;100.00
40073;BME280;25774;52.256;9.356;2022-12-29T07:31:19;99091.81;;;9.87;100.00
40073;BME280;25774;52.256;9.356;2022-12-29T07:33:46;99090.25;;;9.84;100.00
40073;BME280;25774;52.256;9.356;2022-12-29T07:36:13;99100.09;;;9.93;100.00
40073;BME280;25774;52.256;9.356;2022-12-29T07:38:39;99103.03;;;9.77;100.00
40073;BME280;25774;52.256;9.356;2022-12-29T07:41:05;99105.13;;;9.72;100.00
40073;BME280;25774;52.256;9.356;2022-12-29T07:43:30;99090.13;;;9.86;100.00
40073;BME280;25774;52.256;9.356;2022-12-29T07:45:56;99081.44;;;9.72;100.00
40073;BME280;25774;52.256;9.356;2022-12-29T07:48:21;99082.63;;;9.92;100.00
40073;BME280;25774;52.256;9.356;2022-12-29T07:50:47;99087.69;;;9.83;100.00
40073;BME280;25774;52.256;9.356;2022-12-29T07:53:12;99103.53;;;10.07;100.00
40073;BME280;25774;52.256;9.356;2022-12-29T07:55:37;99086.66;;;10.09;100.00
40073;BME280;25774;52.256;9.356;2022-12-29T07:58:03;99091.78;;;10.11;100.00
40073;BME280;25774;52.256;9.356;2022-12-29T08:00:28;99109.97;;;10.27;100.00
40073;BME280;25774;52.256;9.356;2022-12-29T08:02:53;99084.22;;;10.06;100.00
40073;BME280;25774;52.256;9.356;2022-12-29T08:05:19;99076.53;;;10.27;100.00
40073;BME280;25774;52.256;9.356;2022-12-29T08:07:45;99055.50;;;10.14;100.00
40073;BME280;25774;52.256;9.356;2022-12-29T08:10:12;99044.38;;;10.22;100.00
40073;BME280;25774;52.256;9.356;2022-12-29T08:12:38;99031.38;;;10.08;100.00
40073;BME280;25774;52.256;9.356;2022-12-29T08:15:04;99023.84;;;10.14;100.00
40073;BME280;25774;52.256;9.356;2022-12-29T08:17:29;99007.34;;;10.12;100.00
40073;BME280;25774;52.256;9.356;2022-12-29T08:19:56;99004.94;;;10.20;100.00
40073;BME280;25774;52.256;9.356;2022-12-29T08:22:22;98998.81;;;10.09;100.00
40073;BME280;25774;52.256;9.356;2022-12-29T08:24:48;98997.16;;;10.19;100.00
40073;BME280;25774;52.256;9.356;2022-12-29T08:27:13;99017.22;;;10.33;100.00
40073;BME280;25774;52.256;9.356;2022-12-29T08:29:39;99011.47;;;10.28;100.00
40073;BME280;25774;52.256;9.356;2022-12-29T08:32:04;99005.34;;;10.27;100.00
40073;BME280;25774;52.256;9.356;2022-12-29T08:34:31;99009.28;;;10.21;100.00
40073;BME280;25774;52.256;9.356;2022-12-29T08:36:56;99012.59;;;10.12;100.00
40073;BME280;25774;52.256;9.356;2022-12-29T08:39:22;99020.28;;;10.15;100.00
40073;BME280;25774;52.256;9.356;2022-12-29T08:41:47;99010.06;;;10.11;100.00
40073;BME280;25774;52.256;9.356;2022-12-29T08:44:12;99045.53;;;10.31;100.00
40073;BME280;25774;52.256;9.356;2022-12-29T08:46:38;99037.63;;;10.42;100.00
40073;BME280;25774;52.256;9.356;2022-12-29T08:49:03;99037.72;;;10.29;100.00
40073;BME280;25774;52.256;9.356;2022-12-29T08:51:29;99043.03;;;10.05;100.00
40073;BME280;25774;52.256;9.356;2022-12-29T08:53:54;99045.91;;;10.13;100.00
40073;BME280;25774;52.256;9.356;2022-12-29T08:56:20;99052.94;;;10.01;100.00
40073;BME280;25774;52.256;9.356;2022-12-29T08:58:45;99066.53;;;10.19;100.00
40073;BME280;25774;52.256;9.356;2022-12-29T09:01:11;99065.88;;;10.29;100.00
40073;BME280;25774;52.256;9.356;2022-12-29T09:03:36;99065.16;;;10.27;100.00
40073;BME280;25774;52.256;9.356;2022-12-29T09:06:02;99057.84;;;10.30;100.00
40073;BME280;25774;52.256;9.356;2022-12-29T09:08:27;99057.53;;;10.46;100.00
40073;BME280;25774;52.256;9.356;2022-12-29T09:10:53;99060.88;;;10.48;100.00
40073;BME280;25774;52.256;9.356;2022-12-29T09:13:18;99045.31;;;10.45;100.00
40073;BME280;25774;52.256;9.356;2022-12-29T09:15:44;99041.81;;;10.44;100.00
40073;BME280;25774;52.256;9.356;2022-12-29T09:18:10;99047.81;;;10.35;100.00
40073;BME280;25774;52.256;9.356;2022-12-29T09:20:36;99069.69;;;10.60;100.00
40073;BME280;25774;52.256;9.356;2022-12-29T09:23:02;99056.44;;;10.37;100.00
40073;BME280;25774;52.256;9.356;2022-12-29T09:25:28;99059.56;;;10.42;100.00
40073;BME280;25774;52.256;9.356;2022-12-29T09:27:53;99065.06;;;10.39;100.00
40073;BME280;25774;52.256;9.356;2022-12-29T09:30:21;99079.50;;;10.46;100.00
40073;BME280;25774;52.256;9.356;2022-12-29T09:32:47;99079.81;;;10.31;100.00
40073;BME280;25774;52.256;9.356;2022-12-29T09:35:14;99101.78;;;10.18;100.00
40073;BME280;25774;52.256;9.356;2022-12-29T09:37:40;99100.50;;;10.00;100.00
40073;BME280;25774;52.256;9.356;2022-12-29T09:40:07;99127.69;;;10.24;100.00
40073;BME280;25774;52.256;9.356;2022-12-29T09:42:45;99148.09;;;10.34;100.00
40073;BME280;25774;52.256;9.356;2022-12-29T09:45:18;99140.25;;;9.97;100.00
40073;BME280;25774;52.256;9.356;2022-12-29T09:47:51;99149.16;;;9.83;100.00
40073;BME280;25774;52.256;9.356;2022-12-29T09:51:18;99161.94;;;10.00;100.00
40073;BME280;25774;52.256;9.356;2022-12-29T09:53:25;99154.00;;;9.89;100.00
40073;BME280;25774;52.256;9.356;2022-12-29T09:55:54;99149.38;;;10.04;100.00
40073;BME280;25774;52.256;9.356;2022-12-29T10:01:06;99138.41;;;9.86;100.00
40073;BME280;25774;52.256;9.356;2022-12-29T10:03:54;99149.16;;;9.83;100.00
40073;BME280;25774;52.256;9.356;2022-12-29T10:06:40;99153.88;;;9.91;100.00
40073;BME280;25774;52.256;9.356;2022-12-29T10:11:52;99161.44;;;10.19;100.00
40073;BME280;25774;52.256;9.356;2022-12-29T10:17:20;99147.66;;;10.16;100.00
40073;BME280;25774;52.256;9.356;2022-12-29T10:19:57;99132.16;;;10.11;100.00
40073;BME280;25774;52.256;9.356;2022-12-29T10:22:32;99112.94;;;9.98;100.00
40073;BME280;25774;52.256;9.356;2022-12-29T10:25:04;99110.91;;;10.25;100.00
40073;BME280;25774;52.256;9.356;2022-12-29T10:27:36;99095.75;;;10.05;100.00
40073;BME280;25774;52.256;9.356;2022-12-29T10:30:03;99086.50;;;10.11;100.00
40073;BME280;25774;52.256;9.356;2022-12-29T10:32:38;99073.84;;;10.16;100.00
40073;BME280;25774;52.256;9.356;2022-12-29T10:37:49;99069.41;;;10.40;100.00
40073;BME280;25774;52.256;9.356;2022-12-29T10:40:26;99055.44;;;10.27;100.00
40073;BME280;25774;52.256;9.356;2022-12-29T10:42:54;99037.78;;;10.16;100.00
40073;BME280;25774;52.256;9.356;2022-12-29T10:45:21;99044.09;;;10.38;100.00
40073;BME280;25774;52.256;9.356;2022-12-29T10:47:53;99019.16;;;10.07;100.00
40073;BME280;25774;52.256;9.356;2022-12-29T10:50:20;99021.44;;;10.00;100.00
40073;BME280;25774;52.256;9.356;2022-12-29T10:52:47;99030.00;;;10.15;100.00
40073;BME280;25774;52.256;9.356;2022-12-29T10:55:17;99034.84;;;10.08;100.00
40073;BME280;25774;52.256;9.356;2022-12-29T10:57:45;99026.69;;;10.00;100.00
40073;BME280;25774;52.256;9.356;2022-12-29T11:00:18;99051.19;;;10.13;100.00
40073;BME280;25774;52.256;9.356;2022-12-29T11:05:43;99062.47;;;10.15;100.00
40073;BME280;25774;52.256;9.356;2022-12-29T11:08:14;99055.84;;;10.10;100.00
40073;BME280;25774;52.256;9.356;2022-12-29T11:10:44;99067.09;;;10.36;100.00
40073;BME280;25774;52.256;9.356;2022-12-29T11:13:18;99065.22;;;10.60;100.00
40073;BME280;25774;52.256;9.356;2022-12-29T11:15:49;99042.78;;;10.43;100.00
40073;BME280;25774;52.256;9.356;2022-12-29T11:20:46;99038.72;;;10.62;100.00
40073;BME280;25774;52.256;9.356;2022-12-29T11:23:36;99037.66;;;10.87;100.00
40073;BME280;25774;52.256;9.356;2022-12-29T11:28:39;99019.28;;;10.52;100.00
40073;BME280;25774;52.256;9.356;2022-12-29T11:31:06;99015.31;;;10.46;100.00
40073;BME280;25774;52.256;9.356;2022-12-29T11:33:34;99016.28;;;10.45;100.00
40073;BME280;25774;52.256;9.356;2022-12-29T11:36:09;99019.19;;;10.53;100.00
40073;BME280;25774;52.256;9.356;2022-12-29T11:38:39;98993.88;;;10.51;100.00
40073;BME280;25774;52.256;9.356;2022-12-29T11:41:06;98999.50;;;10.46;100.00
40073;BME280;25774;52.256;9.356;2022-12-29T11:43:41;99006.72;;;10.89;100.00
40073;BME280;25774;52.256;9.356;2022-12-29T11:46:15;98998.91;;;10.87;100.00
40073;BME280;25774;52.256;9.356;2022-12-29T11:48:42;98989.19;;;11.10;100.00
40073;BME280;25774;52.256;9.356;2022-12-29T11:51:09;98971.88;;;11.06;100.00
40073;BME280;25774;52.256;9.356;2022-12-29T11:53:44;98959.44;;;10.86;100.00
40073;BME280;25774;52.256;9.356;2022-12-29T11:56:22;98964.59;;;10.99;100.00
40073;BME280;25774;52.256;9.356;2022-12-29T11:58:56;98959.16;;;11.00;100.00
40073;BME280;25774;52.256;9.356;2022-12-29T12:01:38;98968.78;;;10.90;100.00
40073;BME280;25774;52.256;9.356;2022-12-29T12:04:09;98968.06;;;10.88;100.00
40073;BME280;25774;52.256;9.356;2022-12-29T12:07:01;98970.69;;;10.99;100.00
40073;BME280;25774;52.256;9.356;2022-12-29T12:09:32;98962.34;;;10.83;100.00
40073;BME280;25774;52.256;9.356;2022-12-29T12:12:00;98979.66;;;11.19;100.00
40073;BME280;25774;52.256;9.356;2022-12-29T12:14:34;98969.97;;;10.97;100.00
40073;BME280;25774;52.256;9.356;2022-12-29T12:17:09;98960.28;;;10.86;100.00
40073;BME280;25774;52.256;9.356;2022-12-29T12:19:46;98965.81;;;10.94;100.00
40073;BME280;25774;52.256;9.356;2022-12-29T12:22:30;98983.28;;;11.07;100.00
40073;BME280;25774;52.256;9.356;2022-12-29T12:25:04;98971.44;;;11.01;100.00
40073;BME280;25774;52.256;9.356;2022-12-29T12:27:43;98974.91;;;11.02;100.00
40073;BME280;25774;52.256;9.356;2022-12-29T12:30:15;98964.09;;;11.05;100.00
40073;BME280;25774;52.256;9.356;2022-12-29T12:33:02;98967.19;;;11.10;100.00
40073;BME280;25774;52.256;9.356;2022-12-29T13:00:11;98912.47;;;11.23;100.00
40073;BME280;25774;52.256;9.356;2022-12-29T13:02:56;98953.41;;;11.50;100.00
40073;BME280;25774;52.256;9.356;2022-12-29T13:26:41;98926.91;;;10.97;100.00
40073;BME280;25774;52.256;9.356;2022-12-29T13:29:32;98978.91;;;11.28;100.00
40073;BME280;25774;52.256;9.356;2022-12-29T13:37:53;98965.63;;;11.18;100.00
40073;BME280;25774;52.256;9.356;2022-12-29T13:40:24;98995.69;;;11.38;100.00
40073;BME280;25774;52.256;9.356;2022-12-29T13:42:51;98970.94;;;11.07;100.00
40073;BME280;25774;52.256;9.356;2022-12-29T13:45:24;98968.44;;;10.94;100.00
40073;BME280;25774;52.256;9.356;2022-12-29T13:48:02;98999.47;;;11.13;100.00
40073;BME280;25774;52.256;9.356;2022-12-29T13:50:35;99011.94;;;11.23;100.00
40073;BME280;25774;52.256;9.356;2022-12-29T13:53:15;98996.97;;;11.12;100.00
40073;BME280;25774;52.256;9.356;2022-12-29T13:56:07;99018.44;;;11.18;100.00
40073;BME280;25774;52.256;9.356;2022-12-29T13:58:44;99024.69;;;11.17;100.00
40073;BME280;25774;52.256;9.356;2022-12-29T14:01:24;99021.09;;;11.07;100.00
40073;BME280;25774;52.256;9.356;2022-12-29T14:03:54;99026.16;;;11.10;100.00
40073;BME280;25774;52.256;9.356;2022-12-29T14:06:29;99025.53;;;11.07;100.00
40073;BME280;25774;52.256;9.356;2022-12-29T14:09:03;99055.50;;;11.28;100.00
40073;BME280;25774;52.256;9.356;2022-12-29T14:11:37;99053.47;;;11.32;100.00
40073;BME280;25774;52.256;9.356;2022-12-29T14:14:18;99020.84;;;10.88;100.00
40073;BME280;25774;52.256;9.356;2022-12-29T14:16:45;99040.28;;;11.09;100.00
40073;BME280;25774;52.256;9.356;2022-12-29T14:19:29;99041.25;;;11.08;100.00
40073;BME280;25774;52.256;9.356;2022-12-29T14:21:59;99043.53;;;11.13;100.00
40073;BME280;25774;52.256;9.356;2022-12-29T14:26:56;99017.75;;;10.83;100.00
40073;BME280;25774;52.256;9.356;2022-12-29T14:31:52;99093.81;;;11.11;100.00
40073;BME280;25774;52.256;9.356;2022-12-29T14:36:59;99074.03;;;10.94;100.00
40073;BME280;25774;52.256;9.356;2022-12-29T14:44:31;99114.94;;;10.89;100.00
40073;BME280;25774;52.256;9.356;2022-12-29T14:47:00;99100.25;;;10.74;100.00
40073;BME280;25774;52.256;9.356;2022-12-29T14:49:32;99132.31;;;10.80;100.00
40073;BME280;25774;52.256;9.356;2022-12-29T14:52:07;99133.84;;;10.71;100.00
40073;BME280;25774;52.256;9.356;2022-12-29T14:54:41;99145.91;;;10.52;100.00
40073;BME280;25774;52.256;9.356;2022-12-29T14:57:14;99141.50;;;10.63;100.00